createdAt,value
2019-04-14T21:27:21.389Z,20.23
2019-04-14T21:28:21.382Z,20.25
2019-04-14T21:29:21.398Z,20.27
2019-04-14T21:30:21.407Z,20.27
2019-04-14T21:31:21.361Z,20.32
2019-04-14T21:32:21.408Z,20.35
2019-04-14T21:33:21.377Z,20.36
2019-04-14T21:34:21.377Z,20.36
2019-04-14T21:35:21.432Z,20.36
2019-04-14T21:36:21.433Z,20.43
2019-04-14T21:37:21.436Z,20.44
2019-04-14T21:38:21.396Z,20.46
2019-04-14T21:39:21.385Z,20.48
2019-04-14T21:40:21.396Z,20.51
2019-04-14T21:41:21.397Z,20.53
2019-04-14T21:42:21.430Z,20.55
2019-04-14T21:43:21.416Z,20.56
2019-04-14T21:44:21.395Z,20.54
2019-04-14T21:45:21.388Z,20.50
2019-04-14T21:46:21.472Z,20.50
2019-04-14T21:47:21.479Z,20.51
2019-04-14T21:48:21.394Z,20.52
2019-04-14T21:49:21.428Z,20.56
2019-04-14T21:50:21.392Z,20.56
2019-04-14T21:51:21.424Z,20.60
2019-04-14T21:52:21.456Z,20.65
2019-04-14T21:53:21.425Z,20.62
2019-04-14T21:54:21.465Z,27.91
2019-04-14T21:55:21.429Z,27.00
2019-04-14T21:56:21.442Z,23.01
2019-04-14T21:57:21.480Z,21.55
2019-04-14T21:58:21.491Z,21.01
2019-04-14T21:59:21.463Z,20.71
2019-04-14T22:00:21.400Z,20.64
2019-04-14T22:01:23.435Z,20.51
2019-04-14T22:02:21.444Z,20.48
2019-04-14T22:03:21.798Z,20.45
2019-04-14T22:04:21.423Z,20.43
2019-04-14T22:05:21.458Z,20.41
2019-04-14T22:06:21.423Z,20.38
2019-04-14T22:07:21.401Z,20.38
2019-04-14T22:08:21.454Z,20.35
2019-04-14T22:09:21.437Z,20.33
2019-04-14T22:10:21.472Z,20.31
2019-04-14T22:11:21.456Z,20.28
2019-04-14T22:12:21.467Z,20.25
2019-04-14T22:13:21.501Z,20.21
2019-04-14T22:14:21.511Z,20.19
2019-04-14T22:15:21.411Z,20.18
2019-04-14T22:16:21.473Z,20.15
2019-04-14T22:17:21.473Z,20.12
2019-04-14T22:18:21.475Z,20.11
2019-04-14T22:19:21.477Z,20.09
2019-04-14T22:20:21.457Z,20.08
2019-04-14T22:21:21.433Z,20.06
2019-04-14T22:22:21.473Z,20.03
2019-04-14T22:23:21.487Z,20.01
2019-04-14T22:24:21.515Z,20.00
2019-04-14T22:25:21.449Z,19.98
2019-04-14T22:26:26.230Z,19.97
2019-04-14T22:27:21.483Z,19.95
2019-04-14T22:28:21.450Z,19.94
2019-04-14T22:29:21.464Z,19.93
2019-04-14T22:30:21.507Z,19.91
2019-04-14T22:31:21.452Z,19.92
2019-04-14T22:32:21.435Z,19.91
2019-04-14T22:33:21.495Z,19.89
2019-04-14T22:34:21.466Z,19.90
2019-04-14T22:35:21.539Z,19.90
2019-04-14T22:36:21.506Z,19.88
2019-04-14T22:37:21.505Z,19.89
2019-04-14T22:38:21.511Z,19.88
2019-04-14T22:39:21.495Z,19.87
2019-04-14T22:40:21.569Z,19.88
2019-04-14T22:41:21.509Z,19.88
2019-04-14T22:42:21.516Z,19.87
2019-04-14T22:43:21.450Z,19.85
2019-04-14T22:44:21.464Z,19.85
2019-04-14T22:45:21.478Z,19.84
2019-04-14T22:46:21.458Z,19.83
2019-04-14T22:47:21.469Z,19.85
2019-04-14T22:48:21.716Z,19.82
2019-04-14T22:49:21.529Z,19.81
2019-04-14T22:50:21.479Z,19.81
2019-04-14T22:51:21.497Z,19.81
2019-04-14T22:52:21.462Z,19.80
2019-04-14T22:53:21.487Z,19.80
2019-04-14T22:54:21.462Z,19.80
2019-04-14T22:55:21.516Z,19.79
2019-04-14T22:56:21.494Z,19.78
2019-04-14T22:57:21.543Z,19.77
2019-04-14T22:58:21.537Z,19.77
2019-04-14T22:59:21.466Z,19.76
2019-04-14T23:00:21.462Z,19.76
2019-04-14T23:01:21.489Z,19.74
2019-04-14T23:02:21.480Z,19.74
2019-04-14T23:03:21.845Z,19.74
2019-04-14T23:04:21.517Z,19.73
2019-04-14T23:05:21.518Z,19.72
2019-04-14T23:06:21.529Z,19.72
2019-04-14T23:07:21.500Z,19.72
2019-04-14T23:08:21.551Z,19.70
2019-04-14T23:09:21.471Z,19.70
2019-04-14T23:10:21.527Z,19.70
2019-04-14T23:11:21.483Z,19.68
2019-04-14T23:12:21.508Z,19.67
2019-04-14T23:13:21.507Z,19.67
2019-04-14T23:14:21.546Z,19.66
2019-04-14T23:15:21.555Z,19.64
2019-04-14T23:16:21.511Z,19.65
2019-04-14T23:17:21.482Z,19.65
2019-04-14T23:18:21.512Z,19.64
2019-04-14T23:19:21.495Z,19.63
2019-04-14T23:20:23.102Z,19.63
2019-04-14T23:21:21.518Z,19.62
2019-04-14T23:22:21.563Z,19.62
2019-04-14T23:23:21.597Z,19.62
2019-04-14T23:24:21.543Z,19.61
2019-04-14T23:25:21.566Z,19.61
2019-04-14T23:26:21.498Z,19.61
2019-04-14T23:27:21.551Z,19.59
2019-04-14T23:28:21.539Z,19.59
2019-04-14T23:29:21.508Z,19.60
2019-04-14T23:30:21.502Z,19.58
2019-04-14T23:31:21.538Z,19.59
2019-04-14T23:32:21.545Z,19.58
2019-04-14T23:33:21.504Z,19.58
2019-04-14T23:34:21.530Z,19.58
2019-04-14T23:35:21.564Z,19.57
2019-04-14T23:36:21.518Z,19.56
2019-04-14T23:37:21.531Z,19.57
2019-04-14T23:38:21.560Z,19.56
2019-04-14T23:39:21.568Z,19.55
2019-04-14T23:40:21.516Z,19.57
2019-04-14T23:41:21.511Z,19.55
2019-04-14T23:42:21.561Z,19.55
2019-04-14T23:43:21.580Z,19.54
2019-04-14T23:44:21.569Z,19.54
2019-04-14T23:45:21.557Z,19.53
2019-04-14T23:46:21.533Z,19.53
2019-04-14T23:47:21.554Z,19.53
2019-04-14T23:48:21.564Z,19.52
2019-04-14T23:49:21.546Z,19.52
2019-04-14T23:50:21.531Z,19.51
2019-04-14T23:51:21.515Z,19.52
2019-04-14T23:52:21.526Z,19.52
2019-04-14T23:53:21.514Z,19.50
2019-04-14T23:54:21.544Z,19.51
2019-04-14T23:55:21.582Z,19.50
2019-04-14T23:56:21.573Z,19.51
2019-04-14T23:57:21.608Z,19.50
2019-04-14T23:58:21.578Z,19.49
2019-04-14T23:59:21.564Z,19.50
